sensor_id;sensor_type;location;lat;lon;timestamp;P1;durP1;ratioP1;P2;durP2;ratioP2
46290;SDS011;32023;44.444;26.006;2023-04-25T00:00:39;12.85;;;10.00;;
46290;SDS011;32023;44.444;26.006;2023-04-25T00:03:06;15.45;;;10.45;;
46290;SDS011;32023;44.444;26.006;2023-04-25T00:05:37;16.23;;;10.93;;
46290;SDS011;32023;44.444;26.006;2023-04-25T00:08:15;12.93;;;10.05;;
46290;SDS011;32023;44.444;26.006;2023-04-25T00:10:49;18.40;;;10.85;;
46290;SDS011;32023;44.444;26.006;2023-04-25T00:13:20;13.27;;;10.50;;
46290;SDS011;32023;44.444;26.006;2023-04-25T00:15:47;13.70;;;10.57;;
46290;SDS011;32023;44.444;26.006;2023-04-25T00:20:48;15.02;;;10.20;;
46290;SDS011;32023;44.444;26.006;2023-04-25T00:23:15;14.90;;;10.77;;
46290;SDS011;32023;44.444;26.006;2023-04-25T00:25:49;21.33;;;11.02;;
46290;SDS011;32023;44.444;26.006;2023-04-25T00:28:20;17.40;;;11.45;;
46290;SDS011;32023;44.444;26.006;2023-04-25T00:30:47;16.25;;;11.75;;
46290;SDS011;32023;44.444;26.006;2023-04-25T00:33:15;13.48;;;11.60;;
46290;SDS011;32023;44.444;26.006;2023-04-25T00:35:41;15.07;;;11.48;;
46290;SDS011;32023;44.444;26.006;2023-04-25T00:38:11;20.30;;;11.50;;
46290;SDS011;32023;44.444;26.006;2023-04-25T00:40:39;16.75;;;11.40;;
46290;SDS011;32023;44.444;26.006;2023-04-25T00:43:15;24.80;;;11.30;;
46290;SDS011;32023;44.444;26.006;2023-04-25T00:45:42;14.68;;;10.93;;
46290;SDS011;32023;44.444;26.006;2023-04-25T00:48:25;14.82;;;11.18;;
46290;SDS011;32023;44.444;26.006;2023-04-25T00:50:52;16.58;;;11.40;;
46290;SDS011;32023;44.444;26.006;2023-04-25T00:55:50;18.02;;;11.98;;
46290;SDS011;32023;44.444;26.006;2023-04-25T00:58:18;20.90;;;13.57;;
46290;SDS011;32023;44.444;26.006;2023-04-25T01:00:46;15.73;;;13.02;;
46290;SDS011;32023;44.444;26.006;2023-04-25T01:03:16;22.45;;;13.40;;
46290;SDS011;32023;44.444;26.006;2023-04-25T01:05:47;21.83;;;13.27;;
46290;SDS011;32023;44.444;26.006;2023-04-25T01:08:14;16.48;;;12.80;;
46290;SDS011;32023;44.444;26.006;2023-04-25T01:10:40;15.07;;;13.45;;
46290;SDS011;32023;44.444;26.006;2023-04-25T01:13:09;19.15;;;13.65;;
46290;SDS011;32023;44.444;26.006;2023-04-25T01:15:45;16.33;;;13.05;;
46290;SDS011;32023;44.444;26.006;2023-04-25T01:18:12;20.45;;;13.98;;
46290;SDS011;32023;44.444;26.006;2023-04-25T01:20:42;18.20;;;13.18;;
46290;SDS011;32023;44.444;26.006;2023-04-25T01:23:10;16.63;;;13.15;;
46290;SDS011;32023;44.444;26.006;2023-04-25T01:25:41;14.63;;;12.85;;
46290;SDS011;32023;44.444;26.006;2023-04-25T01:28:19;17.25;;;13.57;;
46290;SDS011;32023;44.444;26.006;2023-04-25T01:30:45;20.40;;;13.32;;
46290;SDS011;32023;44.444;26.006;2023-04-25T01:33:19;19.23;;;14.00;;
46290;SDS011;32023;44.444;26.006;2023-04-25T01:35:47;15.40;;;13.02;;
46290;SDS011;32023;44.444;26.006;2023-04-25T01:38:13;14.55;;;12.65;;
46290;SDS011;32023;44.444;26.006;2023-04-25T01:40:45;20.20;;;14.07;;
46290;SDS011;32023;44.444;26.006;2023-04-25T01:43:14;18.13;;;13.13;;
46290;SDS011;32023;44.444;26.006;2023-04-25T01:48:36;18.67;;;13.95;;
46290;SDS011;32023;44.444;26.006;2023-04-25T01:51:11;18.08;;;13.82;;
46290;SDS011;32023;44.444;26.006;2023-04-25T01:53:40;19.63;;;14.57;;
46290;SDS011;32023;44.444;26.006;2023-04-25T01:56:10;16.52;;;13.50;;
46290;SDS011;32023;44.444;26.006;2023-04-25T01:58:36;16.83;;;12.95;;
46290;SDS011;32023;44.444;26.006;2023-04-25T02:03:35;16.42;;;13.00;;
46290;SDS011;32023;44.444;26.006;2023-04-25T02:06:02;15.57;;;12.55;;
46290;SDS011;32023;44.444;26.006;2023-04-25T02:08:28;15.07;;;13.48;;
46290;SDS011;32023;44.444;26.006;2023-04-25T02:10:57;17.10;;;14.13;;
46290;SDS011;32023;44.444;26.006;2023-04-25T02:13:30;17.35;;;13.98;;
46290;SDS011;32023;44.444;26.006;2023-04-25T02:15:57;17.67;;;15.18;;
46290;SDS011;32023;44.444;26.006;2023-04-25T02:18:23;18.02;;;16.08;;
46290;SDS011;32023;44.444;26.006;2023-04-25T02:20:51;19.27;;;14.60;;
46290;SDS011;32023;44.444;26.006;2023-04-25T02:23:17;17.90;;;14.73;;
46290;SDS011;32023;44.444;26.006;2023-04-25T02:25:45;18.05;;;15.20;;
46290;SDS011;32023;44.444;26.006;2023-04-25T02:28:11;19.98;;;15.35;;
46290;SDS011;32023;44.444;26.006;2023-04-25T02:30:45;19.45;;;15.40;;
46290;SDS011;32023;44.444;26.006;2023-04-25T02:33:12;18.77;;;16.00;;
46290;SDS011;32023;44.444;26.006;2023-04-25T02:35:42;18.58;;;15.75;;
46290;SDS011;32023;44.444;26.006;2023-04-25T02:38:11;18.80;;;14.13;;
46290;SDS011;32023;44.444;26.006;2023-04-25T02:40:51;18.90;;;14.27;;
46290;SDS011;32023;44.444;26.006;2023-04-25T02:43:18;17.10;;;13.90;;
46290;SDS011;32023;44.444;26.006;2023-04-25T02:45:46;14.82;;;12.80;;
46290;SDS011;32023;44.444;26.006;2023-04-25T02:50:47;17.13;;;10.13;;
46290;SDS011;32023;44.444;26.006;2023-04-25T02:53:16;10.43;;;8.18;;
46290;SDS011;32023;44.444;26.006;2023-04-25T02:55:45;10.27;;;7.35;;
46290;SDS011;32023;44.444;26.006;2023-04-25T02:58:17;17.58;;;8.15;;
46290;SDS011;32023;44.444;26.006;2023-04-25T03:03:18;11.80;;;7.43;;
46290;SDS011;32023;44.444;26.006;2023-04-25T03:05:48;14.32;;;7.10;;
46290;SDS011;32023;44.444;26.006;2023-04-25T03:08:21;12.80;;;7.15;;
46290;SDS011;32023;44.444;26.006;2023-04-25T03:10:54;12.05;;;7.55;;
46290;SDS011;32023;44.444;26.006;2023-04-25T03:13:24;10.20;;;6.68;;
46290;SDS011;32023;44.444;26.006;2023-04-25T03:15:58;15.57;;;7.28;;
46290;SDS011;32023;44.444;26.006;2023-04-25T03:18:25;18.73;;;7.50;;
46290;SDS011;32023;44.444;26.006;2023-04-25T03:20:51;17.88;;;7.15;;
46290;SDS011;32023;44.444;26.006;2023-04-25T03:23:20;13.80;;;8.27;;
46290;SDS011;32023;44.444;26.006;2023-04-25T03:25:51;9.75;;;7.35;;
46290;SDS011;32023;44.444;26.006;2023-04-25T03:28:17;15.93;;;7.10;;
46290;SDS011;32023;44.444;26.006;2023-04-25T03:30:46;18.42;;;6.82;;
46290;SDS011;32023;44.444;26.006;2023-04-25T03:33:14;14.75;;;7.82;;
46290;SDS011;32023;44.444;26.006;2023-04-25T03:35:43;16.50;;;7.05;;
46290;SDS011;32023;44.444;26.006;2023-04-25T03:38:12;16.75;;;7.65;;
46290;SDS011;32023;44.444;26.006;2023-04-25T03:40:44;15.70;;;8.25;;
46290;SDS011;32023;44.444;26.006;2023-04-25T03:43:17;17.73;;;8.30;;
46290;SDS011;32023;44.444;26.006;2023-04-25T03:48:27;14.48;;;7.25;;
46290;SDS011;32023;44.444;26.006;2023-04-25T03:50:54;14.20;;;7.95;;
46290;SDS011;32023;44.444;26.006;2023-04-25T03:53:21;20.08;;;8.75;;
46290;SDS011;32023;44.444;26.006;2023-04-25T03:55:49;14.82;;;8.52;;
46290;SDS011;32023;44.444;26.006;2023-04-25T03:58:21;18.98;;;8.15;;
46290;SDS011;32023;44.444;26.006;2023-04-25T04:03:40;13.57;;;8.80;;
46290;SDS011;32023;44.444;26.006;2023-04-25T04:06:07;15.75;;;9.68;;
46290;SDS011;32023;44.444;26.006;2023-04-25T04:08:38;15.77;;;9.65;;
46290;SDS011;32023;44.444;26.006;2023-04-25T04:13:34;18.75;;;9.02;;
46290;SDS011;32023;44.444;26.006;2023-04-25T04:16:03;18.70;;;8.35;;
46290;SDS011;32023;44.444;26.006;2023-04-25T04:18:40;14.73;;;8.50;;
46290;SDS011;32023;44.444;26.006;2023-04-25T04:21:08;10.55;;;7.72;;
46290;SDS011;32023;44.444;26.006;2023-04-25T04:23:43;20.80;;;9.13;;
46290;SDS011;32023;44.444;26.006;2023-04-25T04:26:11;19.55;;;9.65;;
46290;SDS011;32023;44.444;26.006;2023-04-25T04:28:41;16.35;;;10.30;;
46290;SDS011;32023;44.444;26.006;2023-04-25T04:31:10;19.08;;;10.63;;
46290;SDS011;32023;44.444;26.006;2023-04-25T04:33:40;20.08;;;10.98;;
46290;SDS011;32023;44.444;26.006;2023-04-25T04:36:07;26.67;;;11.55;;
46290;SDS011;32023;44.444;26.006;2023-04-25T04:38:40;16.05;;;10.05;;
46290;SDS011;32023;44.444;26.006;2023-04-25T04:41:13;18.60;;;9.57;;
46290;SDS011;32023;44.444;26.006;2023-04-25T04:43:58;12.75;;;9.35;;
46290;SDS011;32023;44.444;26.006;2023-04-25T04:51:35;15.23;;;10.38;;
46290;SDS011;32023;44.444;26.006;2023-04-25T04:57:00;20.35;;;10.18;;
46290;SDS011;32023;44.444;26.006;2023-04-25T04:59:27;14.93;;;9.70;;
46290;SDS011;32023;44.444;26.006;2023-04-25T05:02:04;17.30;;;10.50;;
46290;SDS011;32023;44.444;26.006;2023-04-25T05:04:32;16.00;;;10.02;;
46290;SDS011;32023;44.444;26.006;2023-04-25T05:07:01;19.15;;;10.15;;
46290;SDS011;32023;44.444;26.006;2023-04-25T05:09:33;16.05;;;10.00;;
46290;SDS011;32023;44.444;26.006;2023-04-25T05:12:05;18.42;;;9.45;;
46290;SDS011;32023;44.444;26.006;2023-04-25T05:14:45;25.02;;;10.65;;
46290;SDS011;32023;44.444;26.006;2023-04-25T05:17:13;14.85;;;10.80;;
46290;SDS011;32023;44.444;26.006;2023-04-25T05:19:42;19.63;;;11.30;;
46290;SDS011;32023;44.444;26.006;2023-04-25T05:22:09;17.35;;;10.35;;
46290;SDS011;32023;44.444;26.006;2023-04-25T05:27:17;17.23;;;10.32;;
46290;SDS011;32023;44.444;26.006;2023-04-25T05:29:49;16.10;;;10.80;;
46290;SDS011;32023;44.444;26.006;2023-04-25T05:32:16;21.55;;;9.93;;
46290;SDS011;32023;44.444;26.006;2023-04-25T05:34:48;15.95;;;10.32;;
46290;SDS011;32023;44.444;26.006;2023-04-25T05:37:15;12.80;;;10.40;;
46290;SDS011;32023;44.444;26.006;2023-04-25T05:39:43;19.55;;;10.70;;
46290;SDS011;32023;44.444;26.006;2023-04-25T05:42:10;15.05;;;11.40;;
46290;SDS011;32023;44.444;26.006;2023-04-25T05:44:36;18.63;;;12.30;;
46290;SDS011;32023;44.444;26.006;2023-04-25T05:47:08;21.63;;;11.95;;
46290;SDS011;32023;44.444;26.006;2023-04-25T05:49:42;16.65;;;12.50;;
46290;SDS011;32023;44.444;26.006;2023-04-25T05:52:14;17.75;;;11.90;;
46290;SDS011;32023;44.444;26.006;2023-04-25T05:57:18;21.60;;;13.00;;
46290;SDS011;32023;44.444;26.006;2023-04-25T05:59:58;20.02;;;12.55;;
46290;SDS011;32023;44.444;26.006;2023-04-25T06:02:28;22.13;;;13.57;;
46290;SDS011;32023;44.444;26.006;2023-04-25T06:04:54;21.98;;;14.40;;
46290;SDS011;32023;44.444;26.006;2023-04-25T06:07:21;21.58;;;13.27;;
46290;SDS011;32023;44.444;26.006;2023-04-25T06:09:47;19.10;;;14.50;;
46290;SDS011;32023;44.444;26.006;2023-04-25T06:12:14;23.63;;;15.38;;
46290;SDS011;32023;44.444;26.006;2023-04-25T06:14:41;25.98;;;15.10;;
46290;SDS011;32023;44.444;26.006;2023-04-25T06:17:09;22.48;;;16.05;;
46290;SDS011;32023;44.444;26.006;2023-04-25T06:19:38;25.70;;;17.02;;
46290;SDS011;32023;44.444;26.006;2023-04-25T06:22:08;24.33;;;17.60;;
46290;SDS011;32023;44.444;26.006;2023-04-25T06:24:40;25.27;;;18.23;;
46290;SDS011;32023;44.444;26.006;2023-04-25T06:27:17;30.88;;;21.10;;
46290;SDS011;32023;44.444;26.006;2023-04-25T06:29:47;33.38;;;23.48;;
46290;SDS011;32023;44.444;26.006;2023-04-25T06:32:16;31.40;;;23.60;;
46290;SDS011;32023;44.444;26.006;2023-04-25T06:34:43;32.38;;;21.02;;
46290;SDS011;32023;44.444;26.006;2023-04-25T06:37:30;27.52;;;18.83;;
46290;SDS011;32023;44.444;26.006;2023-04-25T06:40:10;24.05;;;17.45;;
46290;SDS011;32023;44.444;26.006;2023-04-25T06:42:55;26.25;;;15.85;;
46290;SDS011;32023;44.444;26.006;2023-04-25T06:45:50;19.23;;;14.48;;
46290;SDS011;32023;44.444;26.006;2023-04-25T06:48:26;24.02;;;14.52;;
46290;SDS011;32023;44.444;26.006;2023-04-25T06:50:53;21.27;;;14.00;;
46290;SDS011;32023;44.444;26.006;2023-04-25T06:53:22;22.65;;;14.15;;
46290;SDS011;32023;44.444;26.006;2023-04-25T06:55:52;22.70;;;14.60;;
46290;SDS011;32023;44.444;26.006;2023-04-25T06:58:28;20.27;;;14.43;;
46290;SDS011;32023;44.444;26.006;2023-04-25T07:01:00;21.27;;;14.77;;
46290;SDS011;32023;44.444;26.006;2023-04-25T07:03:43;18.58;;;13.98;;
46290;SDS011;32023;44.444;26.006;2023-04-25T07:06:20;22.00;;;14.68;;
46290;SDS011;32023;44.444;26.006;2023-04-25T07:09:10;19.83;;;13.73;;
46290;SDS011;32023;44.444;26.006;2023-04-25T07:11:42;20.15;;;13.32;;
46290;SDS011;32023;44.444;26.006;2023-04-25T07:15:00;20.83;;;14.73;;
46290;SDS011;32023;44.444;26.006;2023-04-25T07:21:43;27.17;;;14.88;;
46290;SDS011;32023;44.444;26.006;2023-04-25T07:25:24;23.00;;;13.52;;
46290;SDS011;32023;44.444;26.006;2023-04-25T07:52:09;25.98;;;18.08;;
46290;SDS011;32023;44.444;26.006;2023-04-25T07:55:21;29.17;;;17.35;;
46290;SDS011;32023;44.444;26.006;2023-04-25T07:58:09;29.02;;;18.88;;
46290;SDS011;32023;44.444;26.006;2023-04-25T08:01:18;25.73;;;19.38;;
46290;SDS011;32023;44.444;26.006;2023-04-25T08:07:42;26.00;;;19.80;;
46290;SDS011;32023;44.444;26.006;2023-04-25T08:14:16;28.10;;;19.67;;
46290;SDS011;32023;44.444;26.006;2023-04-25T08:20:06;28.50;;;18.30;;
46290;SDS011;32023;44.444;26.006;2023-04-25T08:23:13;30.45;;;19.15;;
46290;SDS011;32023;44.444;26.006;2023-04-25T08:29:33;30.65;;;19.73;;
46290;SDS011;32023;44.444;26.006;2023-04-25T08:49:45;29.80;;;21.13;;
46290;SDS011;32023;44.444;26.006;2023-04-25T09:12:29;30.88;;;20.00;;
46290;SDS011;32023;44.444;26.006;2023-04-25T09:15:46;28.17;;;19.77;;
46290;SDS011;32023;44.444;26.006;2023-04-25T09:19:08;27.45;;;19.38;;
46290;SDS011;32023;44.444;26.006;2023-04-25T09:39:08;10.10;;;7.25;;
46290;SDS011;32023;44.444;26.006;2023-04-25T09:42:11;13.95;;;7.45;;
46290;SDS011;32023;44.444;26.006;2023-04-25T09:52:02;7.07;;;6.18;;
46290;SDS011;32023;44.444;26.006;2023-04-25T09:55:15;7.78;;;6.13;;
46290;SDS011;32023;44.444;26.006;2023-04-25T10:05:11;7.65;;;6.47;;
46290;SDS011;32023;44.444;26.006;2023-04-25T10:11:49;9.73;;;5.93;;
46290;SDS011;32023;44.444;26.006;2023-04-25T10:18:19;8.55;;;6.15;;
46290;SDS011;32023;44.444;26.006;2023-04-25T10:20:46;8.77;;;5.88;;
46290;SDS011;32023;44.444;26.006;2023-04-25T10:23:13;6.00;;;5.50;;
46290;SDS011;32023;44.444;26.006;2023-04-25T10:25:42;8.20;;;7.32;;
46290;SDS011;32023;44.444;26.006;2023-04-25T10:28:14;9.40;;;6.93;;
46290;SDS011;32023;44.444;26.006;2023-04-25T10:30:59;9.40;;;7.75;;
46290;SDS011;32023;44.444;26.006;2023-04-25T10:33:50;9.50;;;8.60;;
46290;SDS011;32023;44.444;26.006;2023-04-25T10:36:19;9.27;;;8.32;;
46290;SDS011;32023;44.444;26.006;2023-04-25T10:38:47;11.55;;;8.85;;
46290;SDS011;32023;44.444;26.006;2023-04-25T10:41:20;6.75;;;6.15;;
46290;SDS011;32023;44.444;26.006;2023-04-25T10:44:00;8.93;;;5.50;;
46290;SDS011;32023;44.444;26.006;2023-04-25T10:46:29;5.30;;;4.32;;
46290;SDS011;32023;44.444;26.006;2023-04-25T10:48:59;5.57;;;4.80;;
46290;SDS011;32023;44.444;26.006;2023-04-25T10:54:04;5.55;;;3.83;;
46290;SDS011;32023;44.444;26.006;2023-04-25T10:59:30;3.50;;;3.15;;
46290;SDS011;32023;44.444;26.006;2023-04-25T11:01:56;4.35;;;3.30;;
46290;SDS011;32023;44.444;26.006;2023-04-25T11:10:33;5.22;;;3.50;;
46290;SDS011;32023;44.444;26.006;2023-04-25T11:13:02;3.65;;;3.35;;
46290;SDS011;32023;44.444;26.006;2023-04-25T11:15:31;4.63;;;3.63;;
46290;SDS011;32023;44.444;26.006;2023-04-25T11:18:15;6.60;;;3.03;;
46290;SDS011;32023;44.444;26.006;2023-04-25T11:20:44;3.30;;;3.00;;
46290;SDS011;32023;44.444;26.006;2023-04-25T11:23:18;3.80;;;3.50;;
46290;SDS011;32023;44.444;26.006;2023-04-25T11:25:53;8.00;;;3.97;;
46290;SDS011;32023;44.444;26.006;2023-04-25T11:28:23;3.08;;;2.70;;
46290;SDS011;32023;44.444;26.006;2023-04-25T11:30:55;6.15;;;3.58;;
46290;SDS011;32023;44.444;26.006;2023-04-25T11:33:27;7.25;;;3.53;;
46290;SDS011;32023;44.444;26.006;2023-04-25T11:36:09;4.65;;;3.75;;
46290;SDS011;32023;44.444;26.006;2023-04-25T11:38:39;6.75;;;3.38;;
46290;SDS011;32023;44.444;26.006;2023-04-25T11:41:17;4.82;;;3.50;;
46290;SDS011;32023;44.444;26.006;2023-04-25T11:43:45;5.35;;;3.78;;
46290;SDS011;32023;44.444;26.006;2023-04-25T11:46:17;3.70;;;3.35;;
46290;SDS011;32023;44.444;26.006;2023-04-25T11:48:49;4.32;;;3.63;;
46290;SDS011;32023;44.444;26.006;2023-04-25T11:51:23;4.00;;;3.55;;
46290;SDS011;32023;44.444;26.006;2023-04-25T11:53:51;8.20;;;4.70;;
46290;SDS011;32023;44.444;26.006;2023-04-25T11:56:28;13.13;;;6.00;;
46290;SDS011;32023;44.444;26.006;2023-04-25T11:58:58;14.88;;;5.93;;
46290;SDS011;32023;44.444;26.006;2023-04-25T12:01:28;6.68;;;2.78;;
46290;SDS011;32023;44.444;26.006;2023-04-25T12:04:18;8.10;;;3.75;;
46290;SDS011;32023;44.444;26.006;2023-04-25T12:06:47;11.57;;;5.57;;
46290;SDS011;32023;44.444;26.006;2023-04-25T12:09:18;13.38;;;6.05;;
46290;SDS011;32023;44.444;26.006;2023-04-25T12:11:55;15.52;;;7.35;;
46290;SDS011;32023;44.444;26.006;2023-04-25T12:14:23;9.90;;;6.20;;
46290;SDS011;32023;44.444;26.006;2023-04-25T12:16:55;11.77;;;4.35;;
46290;SDS011;32023;44.444;26.006;2023-04-25T12:19:23;12.75;;;4.07;;
46290;SDS011;32023;44.444;26.006;2023-04-25T12:21:50;8.00;;;3.25;;
46290;SDS011;32023;44.444;26.006;2023-04-25T12:24:22;7.57;;;4.00;;
46290;SDS011;32023;44.444;26.006;2023-04-25T12:26:58;5.28;;;3.72;;
46290;SDS011;32023;44.444;26.006;2023-04-25T12:29:26;6.60;;;2.33;;
46290;SDS011;32023;44.444;26.006;2023-04-25T12:31:53;9.73;;;3.15;;
46290;SDS011;32023;44.444;26.006;2023-04-25T12:34:23;5.28;;;2.80;;
46290;SDS011;32023;44.444;26.006;2023-04-25T12:36:53;4.28;;;2.47;;
46290;SDS011;32023;44.444;26.006;2023-04-25T12:39:23;5.55;;;3.35;;
46290;SDS011;32023;44.444;26.006;2023-04-25T12:41:52;9.75;;;3.40;;
46290;SDS011;32023;44.444;26.006;2023-04-25T12:44:21;6.93;;;3.83;;
46290;SDS011;32023;44.444;26.006;2023-04-25T12:46:53;12.82;;;3.55;;
46290;SDS011;32023;44.444;26.006;2023-04-25T12:49:20;6.95;;;3.53;;
46290;SDS011;32023;44.444;26.006;2023-04-25T12:51:47;8.50;;;3.58;;
46290;SDS011;32023;44.444;26.006;2023-04-25T12:54:22;8.50;;;3.28;;
46290;SDS011;32023;44.444;26.006;2023-04-25T12:56:55;9.75;;;3.80;;
46290;SDS011;32023;44.444;26.006;2023-04-25T12:59:21;7.40;;;3.10;;
46290;SDS011;32023;44.444;26.006;2023-04-25T13:01:48;6.88;;;2.97;;
46290;SDS011;32023;44.444;26.006;2023-04-25T13:04:14;5.53;;;2.78;;
46290;SDS011;32023;44.444;26.006;2023-04-25T13:06:45;9.00;;;2.83;;
46290;SDS011;32023;44.444;26.006;2023-04-25T13:09:12;7.10;;;2.72;;
46290;SDS011;32023;44.444;26.006;2023-04-25T13:11:40;3.65;;;2.45;;
46290;SDS011;32023;44.444;26.006;2023-04-25T13:14:06;6.63;;;2.50;;
46290;SDS011;32023;44.444;26.006;2023-04-25T13:16:33;6.70;;;2.65;;
46290;SDS011;32023;44.444;26.006;2023-04-25T13:19:02;7.03;;;2.55;;
46290;SDS011;32023;44.444;26.006;2023-04-25T13:21:33;9.20;;;3.22;;
46290;SDS011;32023;44.444;26.006;2023-04-25T13:23:59;6.57;;;3.00;;
46290;SDS011;32023;44.444;26.006;2023-04-25T13:26:25;7.97;;;3.20;;
46290;SDS011;32023;44.444;26.006;2023-04-25T13:28:55;8.23;;;3.00;;
46290;SDS011;32023;44.444;26.006;2023-04-25T13:31:25;4.30;;;2.47;;
46290;SDS011;32023;44.444;26.006;2023-04-25T13:33:51;4.97;;;2.58;;
46290;SDS011;32023;44.444;26.006;2023-04-25T13:36:27;5.43;;;3.22;;
46290;SDS011;32023;44.444;26.006;2023-04-25T13:38:54;9.30;;;4.82;;
46290;SDS011;32023;44.444;26.006;2023-04-25T13:41:23;5.68;;;3.05;;
46290;SDS011;32023;44.444;26.006;2023-04-25T13:43:49;4.05;;;2.15;;
46290;SDS011;32023;44.444;26.006;2023-04-25T13:46:16;3.45;;;2.00;;
46290;SDS011;32023;44.444;26.006;2023-04-25T13:48:42;4.43;;;1.90;;
46290;SDS011;32023;44.444;26.006;2023-04-25T13:51:11;5.53;;;2.53;;
46290;SDS011;32023;44.444;26.006;2023-04-25T13:53:40;4.60;;;2.53;;
46290;SDS011;32023;44.444;26.006;2023-04-25T13:56:06;2.33;;;1.75;;
46290;SDS011;32023;44.444;26.006;2023-04-25T13:58:35;2.85;;;1.75;;
46290;SDS011;32023;44.444;26.006;2023-04-25T14:01:02;4.15;;;1.90;;
46290;SDS011;32023;44.444;26.006;2023-04-25T14:03:32;2.45;;;1.63;;
46290;SDS011;32023;44.444;26.006;2023-04-25T14:06:04;2.70;;;1.75;;
46290;SDS011;32023;44.444;26.006;2023-04-25T14:08:38;6.07;;;1.70;;
46290;SDS011;32023;44.444;26.006;2023-04-25T14:11:27;2.55;;;2.00;;
46290;SDS011;32023;44.444;26.006;2023-04-25T14:14:05;4.20;;;2.92;;
46290;SDS011;32023;44.444;26.006;2023-04-25T14:16:41;3.38;;;2.35;;
46290;SDS011;32023;44.444;26.006;2023-04-25T14:22:07;3.08;;;2.58;;
46290;SDS011;32023;44.444;26.006;2023-04-25T14:24:45;2.65;;;2.17;;
46290;SDS011;32023;44.444;26.006;2023-04-25T14:27:12;4.40;;;2.55;;
46290;SDS011;32023;44.444;26.006;2023-04-25T14:29:43;5.53;;;2.30;;
46290;SDS011;32023;44.444;26.006;2023-04-25T14:32:11;5.38;;;2.35;;
46290;SDS011;32023;44.444;26.006;2023-04-25T14:34:37;6.85;;;1.90;;
46290;SDS011;32023;44.444;26.006;2023-04-25T14:37:14;3.28;;;1.98;;
46290;SDS011;32023;44.444;26.006;2023-04-25T14:39:59;2.17;;;1.75;;
46290;SDS011;32023;44.444;26.006;2023-04-25T14:49:43;3.85;;;2.10;;
46290;SDS011;32023;44.444;26.006;2023-04-25T15:10:32;11.85;;;4.20;;
46290;SDS011;32023;44.444;26.006;2023-04-25T15:13:01;2.88;;;1.20;;
46290;SDS011;32023;44.444;26.006;2023-04-25T15:15:44;3.50;;;0.80;;
46290;SDS011;32023;44.444;26.006;2023-04-25T15:21:36;0.85;;;0.68;;
46290;SDS011;32023;44.444;26.006;2023-04-25T15:24:18;1.10;;;0.75;;
46290;SDS011;32023;44.444;26.006;2023-04-25T15:26:58;0.90;;;0.60;;
46290;SDS011;32023;44.444;26.006;2023-04-25T15:29:37;1.70;;;0.90;;
46290;SDS011;32023;44.444;26.006;2023-04-25T15:32:31;1.50;;;0.77;;
46290;SDS011;32023;44.444;26.006;2023-04-25T15:34:58;5.63;;;1.00;;
46290;SDS011;32023;44.444;26.006;2023-04-25T15:37:36;0.90;;;0.50;;
46290;SDS011;32023;44.444;26.006;2023-04-25T15:43:10;2.63;;;0.80;;
46290;SDS011;32023;44.444;26.006;2023-04-25T15:46:16;1.98;;;0.82;;
46290;SDS011;32023;44.444;26.006;2023-04-25T15:48:45;2.20;;;0.70;;
46290;SDS011;32023;44.444;26.006;2023-04-25T15:55:20;1.02;;;0.57;;
46290;SDS011;32023;44.444;26.006;2023-04-25T15:58:05;1.05;;;0.80;;
46290;SDS011;32023;44.444;26.006;2023-04-25T16:07:01;0.90;;;0.70;;
46290;SDS011;32023;44.444;26.006;2023-04-25T16:09:50;2.10;;;0.77;;
46290;SDS011;32023;44.444;26.006;2023-04-25T16:15:42;5.70;;;0.90;;
46290;SDS011;32023;44.444;26.006;2023-04-25T16:21:34;2.15;;;1.00;;
46290;SDS011;32023;44.444;26.006;2023-04-25T16:24:01;1.20;;;0.80;;
46290;SDS011;32023;44.444;26.006;2023-04-25T16:26:33;1.10;;;0.73;;
46290;SDS011;32023;44.444;26.006;2023-04-25T16:29:02;2.28;;;0.75;;
46290;SDS011;32023;44.444;26.006;2023-04-25T16:31:32;3.05;;;0.93;;
46290;SDS011;32023;44.444;26.006;2023-04-25T16:36:30;1.10;;;0.80;;
46290;SDS011;32023;44.444;26.006;2023-04-25T16:38:56;1.33;;;0.93;;
46290;SDS011;32023;44.444;26.006;2023-04-25T16:41:25;1.33;;;1.23;;
46290;SDS011;32023;44.444;26.006;2023-04-25T16:43:52;1.27;;;0.77;;
46290;SDS011;32023;44.444;26.006;2023-04-25T16:46:18;3.15;;;1.42;;
46290;SDS011;32023;44.444;26.006;2023-04-25T16:48:47;2.85;;;0.90;;
46290;SDS011;32023;44.444;26.006;2023-04-25T16:51:14;1.15;;;1.05;;
46290;SDS011;32023;44.444;26.006;2023-04-25T16:53:41;1.17;;;1.08;;
46290;SDS011;32023;44.444;26.006;2023-04-25T16:56:08;2.95;;;1.08;;
46290;SDS011;32023;44.444;26.006;2023-04-25T16:58:34;2.40;;;1.20;;
46290;SDS011;32023;44.444;26.006;2023-04-25T17:01:00;2.38;;;1.00;;
46290;SDS011;32023;44.444;26.006;2023-04-25T17:03:27;1.38;;;1.27;;
46290;SDS011;32023;44.444;26.006;2023-04-25T17:05:54;4.38;;;1.30;;
46290;SDS011;32023;44.444;26.006;2023-04-25T17:08:25;1.17;;;0.93;;
46290;SDS011;32023;44.444;26.006;2023-04-25T17:10:53;3.00;;;1.25;;
46290;SDS011;32023;44.444;26.006;2023-04-25T17:13:40;4.35;;;1.40;;
46290;SDS011;32023;44.444;26.006;2023-04-25T17:16:27;2.80;;;1.55;;
46290;SDS011;32023;44.444;26.006;2023-04-25T17:19:07;5.15;;;1.52;;
46290;SDS011;32023;44.444;26.006;2023-04-25T17:21:33;2.33;;;1.50;;
46290;SDS011;32023;44.444;26.006;2023-04-25T17:37:58;2.70;;;2.22;;
46290;SDS011;32023;44.444;26.006;2023-04-25T17:40:25;4.25;;;2.30;;
46290;SDS011;32023;44.444;26.006;2023-04-25T17:47:27;2.83;;;2.35;;
46290;SDS011;32023;44.444;26.006;2023-04-25T17:49:56;4.65;;;2.35;;
46290;SDS011;32023;44.444;26.006;2023-04-25T17:52:41;3.58;;;2.40;;
46290;SDS011;32023;44.444;26.006;2023-04-25T17:55:09;7.35;;;2.50;;
46290;SDS011;32023;44.444;26.006;2023-04-25T17:57:41;4.25;;;2.55;;
46290;SDS011;32023;44.444;26.006;2023-04-25T18:00:15;5.85;;;2.20;;
46290;SDS011;32023;44.444;26.006;2023-04-25T18:05:50;4.60;;;2.70;;
46290;SDS011;32023;44.444;26.006;2023-04-25T18:08:16;6.70;;;2.90;;
46290;SDS011;32023;44.444;26.006;2023-04-25T18:10:42;5.90;;;3.35;;
46290;SDS011;32023;44.444;26.006;2023-04-25T18:13:12;4.70;;;2.80;;
46290;SDS011;32023;44.444;26.006;2023-04-25T18:15:43;4.60;;;2.55;;
46290;SDS011;32023;44.444;26.006;2023-04-25T18:18:09;6.97;;;2.70;;
46290;SDS011;32023;44.444;26.006;2023-04-25T18:20:46;9.15;;;3.03;;
46290;SDS011;32023;44.444;26.006;2023-04-25T18:23:12;6.85;;;3.22;;
46290;SDS011;32023;44.444;26.006;2023-04-25T18:25:39;3.85;;;2.78;;
46290;SDS011;32023;44.444;26.006;2023-04-25T18:28:16;8.30;;;3.67;;
46290;SDS011;32023;44.444;26.006;2023-04-25T18:30:58;8.15;;;3.70;;
46290;SDS011;32023;44.444;26.006;2023-04-25T18:33:26;8.27;;;3.40;;
46290;SDS011;32023;44.444;26.006;2023-04-25T18:35:52;5.45;;;4.25;;
46290;SDS011;32023;44.444;26.006;2023-04-25T18:40:57;7.60;;;4.38;;
46290;SDS011;32023;44.444;26.006;2023-04-25T18:43:32;7.28;;;4.57;;
46290;SDS011;32023;44.444;26.006;2023-04-25T18:49:18;8.00;;;5.72;;
46290;SDS011;32023;44.444;26.006;2023-04-25T18:54:59;4.80;;;4.30;;
46290;SDS011;32023;44.444;26.006;2023-04-25T18:57:26;11.40;;;4.72;;
46290;SDS011;32023;44.444;26.006;2023-04-25T18:59:53;6.60;;;5.57;;
46290;SDS011;32023;44.444;26.006;2023-04-25T19:02:24;7.40;;;5.60;;
46290;SDS011;32023;44.444;26.006;2023-04-25T19:04:51;12.73;;;6.43;;
46290;SDS011;32023;44.444;26.006;2023-04-25T19:07:17;7.68;;;6.47;;